Ixworth, United Kingdom
Current Conditions -  °F | °C
As of 2:07 AM on Monday 26 Jan 2015 (Local Time) from EGUL Reporting Station
Overcast Overcast  
Wind Chill:   Ceiling: 8000
Heat Index:   Visibility: 6mi
Dew Point:   Wind: 10mph
Humidity: 100%   Direction: 230°SW
Pressure: 30.15"   Gusts: NA
Location:  52.3°N, 0.83°E
Report Text: EGUL 260207Z AUTO 23009KT 9999 SCT010 BKN080 OVC095 08/08 A3015 RMK AO2
Loading
Personal Weather Stations






























Interactive Weather Map New forecast layout! Learn more

10-Day Weather Forecast

Advertisements
Track Severe Weather on mobile